Time;durP1;ratioP1;P1;durP2;ratioP2;P2;SDS_P1;SDS_P2;PMS_P1;PMS_P2;Temp;Humidity;BMP_temperature;BMP_pressure;BME280_temperature;BME280_humidity;BME280_pressure;Samples;Min_cycle;Max_cycle;Signal;HPM_P1;HPM_P2
2021/08/30 00:01:18;;;;;;;5.35;3.30;;;20.30;69.10;;;;;;4936187;29;20031;-80
2021/08/30 00:03:45;;;;;;;4.80;3.10;;;20.20;69.10;;;;;;4946026;28;20067;-80
2021/08/30 00:06:10;;;;;;;5.63;3.45;;;20.20;69.00;;;;;;4921100;29;20035;-80
2021/08/30 00:08:37;;;;;;;4.68;3.25;;;20.20;69.00;;;;;;4953830;28;20027;-80
2021/08/30 00:11:03;;;;;;;4.72;3.20;;;20.20;69.10;;;;;;4944704;29;20038;-79
2021/08/30 00:13:29;;;;;;;4.47;3.03;;;20.20;69.10;;;;;;4936780;29;20086;-80
2021/08/30 00:15:56;;;;;;;4.30;3.03;;;20.20;69.10;;;;;;4950917;28;20028;-79
2021/08/30 00:18:23;;;;;;;4.45;3.33;;;20.20;69.10;;;;;;4929266;29;20090;-79
2021/08/30 00:20:50;;;;;;;4.57;3.03;;;20.20;69.10;;;;;;4950343;29;20039;-79
2021/08/30 00:23:16;;;;;;;4.72;3.20;;;20.20;69.10;;;;;;4920838;28;20031;-79
2021/08/30 00:25:42;;;;;;;5.63;2.92;;;20.10;69.10;;;;;;4940267;29;20469;-80
2021/08/30 00:28:08;;;;;;;4.47;3.20;;;20.10;69.10;;;;;;4937119;29;20063;-79
2021/08/30 00:30:34;;;;;;;4.13;3.20;;;20.10;69.10;;;;;;4952606;29;20023;-79
2021/08/30 00:33:00;;;;;;;4.93;3.55;;;20.10;69.10;;;;;;4938440;29;20449;-79
2021/08/30 00:35:26;;;;;;;4.60;3.42;;;20.10;69.10;;;;;;4939451;29;20058;-79
2021/08/30 00:37:51;;;;;;;4.88;3.15;;;20.10;69.10;;;;;;4956345;29;20408;-79
2021/08/30 00:40:17;;;;;;;4.10;2.95;;;20.00;69.10;;;;;;4939397;29;20129;-80
2021/08/30 00:42:45;;;;;;;4.53;3.28;;;20.10;69.10;;;;;;4957109;29;20043;-79
2021/08/30 00:45:12;;;;;;;4.97;3.35;;;20.00;69.10;;;;;;4955888;28;20399;-79
2021/08/30 00:47:38;;;;;;;4.43;3.33;;;20.10;69.10;;;;;;4925155;29;20051;-79
2021/08/30 00:50:09;;;;;;;4.78;3.15;;;20.00;69.70;;;;;;4947593;28;20035;-79
2021/08/30 00:52:36;;;;;;;5.55;3.28;;;20.00;69.10;;;;;;4932652;29;20043;-79
2021/08/30 00:55:02;;;;;;;4.32;3.10;;;20.00;69.10;;;;;;4938791;29;20015;-79
2021/08/30 00:57:28;;;;;;;5.15;3.50;;;20.00;69.10;;;;;;4939125;28;20031;-79
2021/08/30 00:59:53;;;;;;;5.00;3.45;;;20.00;69.10;;;;;;4955243;28;20045;-78
2021/08/30 01:02:19;;;;;;;4.07;3.10;;;20.00;69.10;;;;;;4955002;28;20058;-79
2021/08/30 01:04:47;;;;;;;4.57;3.10;;;19.90;69.10;;;;;;4907794;29;20035;-79
2021/08/30 01:07:19;;;;;;;4.90;3.10;;;19.90;69.10;;;;;;4943427;29;20083;-79
2021/08/30 01:09:53;;;;;;;4.50;3.15;;;19.90;69.10;;;;;;4964096;28;20047;-79
2021/08/30 01:12:53;;;;;;;4.82;3.20;;;19.90;69.10;;;;;;4955385;29;20114;-79
2021/08/30 01:15:36;;;;;;;4.57;3.03;;;19.90;69.20;;;;;;4924611;29;20125;-79
2021/08/30 01:18:03;;;;;;;4.35;3.20;;;19.90;69.10;;;;;;4961779;28;20050;-79
2021/08/30 01:20:32;;;;;;;5.13;3.25;;;19.90;69.10;;;;;;4955010;28;20046;-79
2021/08/30 01:22:59;;;;;;;5.15;3.33;;;19.90;69.20;;;;;;4956768;28;20035;-79
2021/08/30 01:25:26;;;;;;;4.53;3.22;;;19.90;69.20;;;;;;4939282;29;20031;-80
2021/08/30 01:27:52;;;;;;;4.35;3.00;;;19.80;69.20;;;;;;4955894;28;20464;-79
2021/08/30 01:30:21;;;;;;;6.03;3.33;;;19.80;69.20;;;;;;4939405;29;20047;-80
2021/08/30 01:32:53;;;;;;;4.80;3.20;;;19.80;69.20;;;;;;4947210;29;20432;-79
2021/08/30 01:35:21;;;;;;;5.00;3.80;;;19.80;69.20;;;;;;4968960;28;20042;-79
2021/08/30 01:37:50;;;;;;;4.10;2.90;;;19.80;69.20;;;;;;4963008;28;20090;-79
2021/08/30 01:40:19;;;;;;;4.32;2.83;;;19.80;69.20;;;;;;4966908;28;20105;-79
2021/08/30 01:42:51;;;;;;;4.00;2.65;;;19.80;69.20;;;;;;4959803;28;20142;-79
2021/08/30 01:45:20;;;;;;;4.00;2.80;;;19.80;69.30;;;;;;4955046;28;20032;-79
2021/08/30 01:47:47;;;;;;;3.83;2.85;;;19.80;69.30;;;;;;4954168;28;20551;-80
2021/08/30 01:50:15;;;;;;;4.43;3.08;;;19.80;69.30;;;;;;4936362;29;20595;-80
2021/08/30 01:52:43;;;;;;;5.03;2.95;;;19.80;69.30;;;;;;4953481;29;20480;-79
2021/08/30 01:55:19;;;;;;;5.40;3.08;;;19.80;69.30;;;;;;4938523;29;20066;-80
2021/08/30 02:00:47;;;;;;;4.03;2.92;;;19.80;69.40;;;;;;4938745;29;20043;-79
2021/08/30 02:03:17;;;;;;;4.72;3.10;;;19.80;69.50;;;;;;4956916;28;20035;-80
2021/08/30 02:05:53;;;;;;;3.95;2.78;;;19.80;69.40;;;;;;4938394;29;20111;-80
2021/08/30 02:08:22;;;;;;;4.47;3.00;;;19.80;69.40;;;;;;4946344;29;20500;-80
2021/08/30 02:10:50;;;;;;;4.70;3.35;;;19.80;69.40;;;;;;4922001;29;20544;-80
2021/08/30 02:13:17;;;;;;;4.65;3.20;;;19.80;69.50;;;;;;4938216;29;20023;-79
2021/08/30 02:15:45;;;;;;;4.57;3.38;;;19.70;69.40;;;;;;4954920;28;20035;-79
2021/08/30 02:18:38;;;;;;;4.93;3.28;;;19.80;69.50;;;;;;4937223;29;20082;-79
2021/08/30 02:21:17;;;;;;;4.35;3.00;;;19.80;69.70;;;;;;4941369;29;20035;-79
2021/08/30 02:24:11;;;;;;;4.47;3.13;;;19.80;69.60;;;;;;4962327;28;20035;-80
2021/08/30 02:27:04;;;;;;;4.45;3.20;;;19.70;69.60;;;;;;4953752;28;20038;-81
2021/08/30 02:29:55;;;;;;;4.22;3.03;;;19.70;69.60;;;;;;4937823;29;20043;-81
2021/08/30 02:32:23;;;;;;;4.57;3.10;;;19.70;69.50;;;;;;4953810;29;20027;-80
2021/08/30 02:34:53;;;;;;;4.70;3.35;;;19.70;69.50;;;;;;4954900;28;20118;-79
2021/08/30 02:37:21;;;;;;;4.60;3.33;;;19.70;69.60;;;;;;4937384;29;20035;-80
2021/08/30 02:39:49;;;;;;;5.20;3.53;;;19.70;69.60;;;;;;4919993;29;20039;-79
2021/08/30 02:42:15;;;;;;;4.07;2.95;;;19.70;69.60;;;;;;4954926;28;20023;-79
2021/08/30 02:44:43;;;;;;;5.60;3.88;;;19.70;69.60;;;;;;4953291;29;20415;-79
2021/08/30 02:47:10;;;;;;;4.50;3.10;;;19.70;69.60;;;;;;4952856;28;20047;-79
2021/08/30 02:49:39;;;;;;;4.53;3.00;;;19.70;70.30;;;;;;4921120;29;20507;-80
2021/08/30 02:52:06;;;;;;;4.15;2.90;;;19.70;69.70;;;;;;4949093;28;20027;-79
2021/08/30 02:54:33;;;;;;;4.85;3.33;;;19.70;69.70;;;;;;4953366;29;20471;-80
2021/08/30 02:57:01;;;;;;;5.97;3.60;;;19.70;69.70;;;;;;4921899;29;20043;-79
2021/08/30 02:59:28;;;;;;;5.95;3.50;;;19.70;69.70;;;;;;4937318;29;20030;-79
2021/08/30 03:01:54;;;;;;;5.35;3.22;;;19.70;69.70;;;;;;4937294;29;20032;-79
2021/08/30 03:04:20;;;;;;;4.40;3.38;;;19.70;69.70;;;;;;4969185;28;20046;-80
2021/08/30 03:06:48;;;;;;;4.85;3.42;;;19.70;69.70;;;;;;4936962;29;20050;-79
2021/08/30 03:09:13;;;;;;;4.65;2.95;;;19.70;69.80;;;;;;4953890;28;20043;-79
2021/08/30 03:11:41;;;;;;;5.20;3.28;;;19.70;69.70;;;;;;4936859;29;20031;-79
2021/08/30 03:14:09;;;;;;;5.20;3.50;;;19.70;69.80;;;;;;4953617;29;20042;-80
2021/08/30 03:16:36;;;;;;;5.55;3.55;;;19.70;69.80;;;;;;4929337;29;20031;-78
2021/08/30 03:19:03;;;;;;;5.93;3.78;;;19.70;69.80;;;;;;4937201;29;20077;-80
2021/08/30 03:21:29;;;;;;;5.95;3.80;;;19.70;69.80;;;;;;4952762;29;20043;-79
2021/08/30 03:23:57;;;;;;;5.40;3.90;;;19.70;69.90;;;;;;4953611;28;20090;-79
2021/08/30 03:26:26;;;;;;;5.22;3.40;;;19.70;69.90;;;;;;4936233;29;20031;-80
2021/08/30 03:28:53;;;;;;;5.18;3.63;;;19.70;69.90;;;;;;4954066;29;20050;-79
2021/08/30 03:31:19;;;;;;;5.15;3.60;;;19.70;69.90;;;;;;4937248;29;20475;-79
2021/08/30 03:33:47;;;;;;;5.95;4.05;;;19.70;69.90;;;;;;4952959;29;20030;-79
2021/08/30 03:36:14;;;;;;;5.50;3.85;;;19.70;69.90;;;;;;4953394;29;20111;-79
2021/08/30 03:38:40;;;;;;;5.15;3.78;;;19.70;69.90;;;;;;4952637;28;20035;-80
2021/08/30 03:41:07;;;;;;;5.38;3.78;;;19.70;70.00;;;;;;4945324;29;20053;-79
2021/08/30 03:43:33;;;;;;;5.00;3.58;;;19.70;69.90;;;;;;4920698;29;20031;-79
2021/08/30 03:46:00;;;;;;;4.75;3.58;;;19.70;69.90;;;;;;4954227;28;20392;-79
2021/08/30 03:48:26;;;;;;;5.45;3.90;;;19.70;69.90;;;;;;4958919;28;20065;-80
2021/08/30 03:50:54;;;;;;;5.55;3.58;;;19.70;69.90;;;;;;4974636;28;20035;-80
2021/08/30 03:53:21;;;;;;;4.90;3.67;;;19.60;69.90;;;;;;4953516;28;20077;-80
2021/08/30 03:55:48;;;;;;;5.68;4.00;;;19.70;69.90;;;;;;4974829;28;20026;-79
2021/08/30 03:58:16;;;;;;;6.63;4.05;;;19.70;69.90;;;;;;4942847;28;20022;-80
2021/08/30 04:00:42;;;;;;;5.55;4.13;;;19.70;69.90;;;;;;4979244;28;20707;-80
2021/08/30 04:03:11;;;;;;;8.18;3.80;;;19.70;69.90;;;;;;4963076;28;20109;-79
2021/08/30 04:05:38;;;;;;;5.30;3.63;;;19.70;69.90;;;;;;4963044;28;20030;-79
2021/08/30 04:08:06;;;;;;;5.05;3.50;;;19.70;69.90;;;;;;4978983;28;20248;-79
2021/08/30 04:10:33;;;;;;;4.88;3.58;;;19.70;69.90;;;;;;4996401;28;20026;-80
2021/08/30 04:12:59;;;;;;;5.13;3.40;;;19.70;69.90;;;;;;4961990;28;20034;-79
2021/08/30 04:15:25;;;;;;;5.10;3.75;;;19.60;69.90;;;;;;4962578;28;20066;-79
2021/08/30 04:17:51;;;;;;;6.28;4.10;;;19.70;69.90;;;;;;4978396;28;20071;-80
2021/08/30 04:20:17;;;;;;;5.35;3.88;;;19.60;69.80;;;;;;4962584;28;20026;-79
2021/08/30 04:22:43;;;;;;;5.43;3.85;;;19.70;69.90;;;;;;4962651;28;20045;-81
2021/08/30 04:25:09;;;;;;;6.43;4.28;;;19.60;70.50;;;;;;4962574;28;20034;-79
2021/08/30 04:27:35;;;;;;;5.65;3.85;;;19.60;69.80;;;;;;4961969;28;20022;-79
2021/08/30 04:30:01;;;;;;;5.88;4.18;;;19.70;69.90;;;;;;4945666;28;20133;-79
2021/08/30 04:32:32;;;;;;;5.75;4.00;;;19.70;70.00;;;;;;4996455;28;20034;-79
2021/08/30 04:34:58;;;;;;;5.18;3.72;;;19.70;70.00;;;;;;4970809;28;20081;-79
2021/08/30 04:37:24;;;;;;;6.57;4.47;;;19.60;69.90;;;;;;4979015;28;20393;-79
2021/08/30 04:39:50;;;;;;;6.18;4.22;;;19.70;70.00;;;;;;4978020;28;20126;-80
2021/08/30 04:42:16;;;;;;;6.20;4.25;;;19.70;70.00;;;;;;4977954;28;20026;-79
2021/08/30 04:44:42;;;;;;;6.57;4.38;;;19.60;70.00;;;;;;4978475;28;20394;-79
2021/08/30 04:47:07;;;;;;;5.15;4.18;;;19.60;70.00;;;;;;4961985;28;20074;-79
2021/08/30 04:49:34;;;;;;;6.40;4.43;;;19.60;70.00;;;;;;4947267;28;20034;-79
2021/08/30 04:52:00;;;;;;;5.78;3.80;;;19.60;70.00;;;;;;4963851;28;20062;-79
2021/08/30 04:54:26;;;;;;;6.00;4.22;;;19.70;70.10;;;;;;4962192;28;20031;-77
2021/08/30 04:56:52;;;;;;;5.85;4.32;;;19.70;70.10;;;;;;4995177;28;20041;-79
2021/08/30 04:59:17;;;;;;;6.45;4.53;;;19.70;70.10;;;;;;4946552;28;20042;-79
2021/08/30 05:01:43;;;;;;;5.68;3.80;;;19.60;70.00;;;;;;4958698;28;20039;-80
2021/08/30 05:04:09;;;;;;;6.53;4.72;;;19.70;70.10;;;;;;4976210;28;20073;-79
2021/08/30 05:06:34;;;;;;;6.53;4.50;;;19.70;70.10;;;;;;4978357;28;20033;-79
2021/08/30 05:09:00;;;;;;;6.60;4.90;;;19.70;70.10;;;;;;4977958;28;20070;-79
2021/08/30 05:11:26;;;;;;;6.10;4.00;;;19.70;70.10;;;;;;4977893;28;20437;-78
2021/08/30 05:13:52;;;;;;;6.10;4.13;;;19.70;70.10;;;;;;4977505;28;20049;-79
2021/08/30 05:16:17;;;;;;;5.88;4.32;;;19.70;70.10;;;;;;4949225;28;20435;-79
2021/08/30 05:18:43;;;;;;;6.20;4.15;;;19.60;70.00;;;;;;4945794;28;20458;-78
2021/08/30 05:21:09;;;;;;;6.00;3.90;;;19.70;70.10;;;;;;4953527;28;20051;-79
2021/08/30 05:23:35;;;;;;;6.28;4.78;;;19.70;70.10;;;;;;4977811;28;20094;-79
2021/08/30 05:26:01;;;;;;;5.93;4.25;;;19.70;70.10;;;;;;4961167;28;20030;-79
2021/08/30 05:28:27;;;;;;;5.88;4.07;;;19.70;70.10;;;;;;4977295;28;20034;-79
2021/08/30 05:30:53;;;;;;;5.85;4.15;;;19.70;70.10;;;;;;4990642;28;20414;-78
2021/08/30 05:33:19;;;;;;;6.22;4.57;;;19.70;70.10;;;;;;4978062;28;20069;-78
2021/08/30 05:35:45;;;;;;;6.43;4.55;;;19.70;70.10;;;;;;4994788;28;20063;-79
2021/08/30 05:38:11;;;;;;;6.30;4.60;;;19.70;70.10;;;;;;4945355;28;20391;-79
2021/08/30 05:40:37;;;;;;;7.32;4.60;;;19.70;70.10;;;;;;4957676;28;20133;-79
2021/08/30 05:43:03;;;;;;;5.75;4.47;;;19.70;70.10;;;;;;4993877;28;20031;-79
2021/08/30 05:45:31;;;;;;;5.90;4.28;;;19.70;70.10;;;;;;4959885;28;20030;-79
2021/08/30 05:47:57;;;;;;;8.10;4.93;;;19.70;70.20;;;;;;4994063;28;20053;-80
2021/08/30 05:50:22;;;;;;;6.65;4.93;;;19.70;70.20;;;;;;4961274;28;20394;-79
2021/08/30 05:52:48;;;;;;;6.30;4.85;;;19.70;70.20;;;;;;4989016;28;20089;-79
2021/08/30 05:55:14;;;;;;;6.13;4.00;;;19.70;70.20;;;;;;4977319;28;20125;-78
2021/08/30 05:57:40;;;;;;;7.20;4.95;;;19.70;70.20;;;;;;4957480;28;20117;-79
2021/08/30 06:00:06;;;;;;;5.70;4.43;;;19.70;70.20;;;;;;4974761;28;20137;-80
2021/08/30 06:02:32;;;;;;;6.43;4.75;;;19.70;70.20;;;;;;4945144;28;20053;-79
2021/08/30 06:04:57;;;;;;;7.97;5.18;;;19.70;70.20;;;;;;4944549;28;20471;-78
2021/08/30 06:07:23;;;;;;;5.95;4.82;;;19.70;70.20;;;;;;4968180;28;20020;-78
2021/08/30 06:09:49;;;;;;;6.82;4.80;;;19.70;70.20;;;;;;4960403;28;20414;-80
2021/08/30 06:12:15;;;;;;;6.60;4.80;;;19.70;70.20;;;;;;4973777;28;20037;-82
2021/08/30 06:14:41;;;;;;;6.40;4.30;;;19.70;70.20;;;;;;4972149;28;20026;-79
2021/08/30 06:17:07;;;;;;;6.80;4.50;;;19.70;70.20;;;;;;4959570;28;20038;-79
2021/08/30 06:19:32;;;;;;;6.60;4.47;;;19.70;70.20;;;;;;4955508;28;20034;-78
2021/08/30 06:21:58;;;;;;;6.05;3.97;;;19.70;70.20;;;;;;4953712;28;20026;-78
2021/08/30 06:24:25;;;;;;;6.80;4.65;;;19.70;70.30;;;;;;4972315;28;20034;-80
2021/08/30 06:26:50;;;;;;;8.25;5.20;;;19.80;70.30;;;;;;4940666;28;20394;-79
2021/08/30 06:29:16;;;;;;;7.00;4.82;;;19.80;70.40;;;;;;4958000;28;20047;-80
2021/08/30 06:31:42;;;;;;;7.13;5.00;;;19.80;70.40;;;;;;4984875;28;20473;-79
2021/08/30 06:34:08;;;;;;;7.35;5.38;;;19.80;70.40;;;;;;4974563;28;20023;-79
2021/08/30 06:36:34;;;;;;;7.10;4.97;;;19.80;70.40;;;;;;4943265;28;20035;-78
2021/08/30 06:39:02;;;;;;;6.10;4.68;;;19.80;70.50;;;;;;4974898;28;20363;-78
2021/08/30 06:41:28;;;;;;;6.70;4.80;;;19.80;70.50;;;;;;4976168;28;20026;-78
2021/08/30 06:43:54;;;;;;;8.07;4.82;;;19.80;70.50;;;;;;4957273;28;20084;-79
2021/08/30 06:46:20;;;;;;;7.40;4.97;;;19.80;70.50;;;;;;4986912;28;20042;-80
2021/08/30 06:48:45;;;;;;;6.40;4.82;;;19.80;70.50;;;;;;4970364;28;20034;-78
2021/08/30 06:51:11;;;;;;;6.53;4.63;;;19.80;70.50;;;;;;4938111;28;20585;-80
2021/08/30 06:53:39;;;;;;;7.32;4.88;;;19.90;70.50;;;;;;4924287;28;20027;-79
2021/08/30 06:56:05;;;;;;;6.22;4.68;;;19.80;70.50;;;;;;4986843;28;20113;-79
2021/08/30 06:58:31;;;;;;;7.13;5.18;;;19.90;70.50;;;;;;4956837;28;20022;-78
2021/08/30 07:00:57;;;;;;;7.05;4.95;;;19.90;70.50;;;;;;4951792;28;20038;-80
2021/08/30 07:03:23;;;;;;;5.97;4.80;;;19.90;70.40;;;;;;4987407;28;20046;-78
2021/08/30 07:05:48;;;;;;;6.82;4.55;;;19.90;70.40;;;;;;4956421;28;20034;-79
2021/08/30 07:08:14;;;;;;;7.32;4.70;;;19.90;70.40;;;;;;4993125;28;20038;-79
2021/08/30 07:10:41;;;;;;;7.45;5.43;;;19.90;70.40;;;;;;4959240;28;20030;-79
2021/08/30 07:13:06;;;;;;;5.95;4.63;;;19.90;70.40;;;;;;4959740;28;20144;-78
2021/08/30 07:15:32;;;;;;;8.82;5.35;;;20.00;70.50;;;;;;4924975;28;20534;-79
2021/08/30 07:17:58;;;;;;;7.05;4.75;;;20.00;70.50;;;;;;4975379;28;20578;-77
2021/08/30 07:20:24;;;;;;;7.63;4.93;;;20.00;70.50;;;;;;4975571;28;20415;-79
2021/08/30 07:22:50;;;;;;;7.82;4.75;;;20.00;70.50;;;;;;4959267;28;20042;-79
2021/08/30 07:25:16;;;;;;;7.55;5.10;;;20.00;70.50;;;;;;4971933;28;20034;-81
2021/08/30 07:27:41;;;;;;;6.60;4.88;;;20.10;70.50;;;;;;4953659;28;20022;-80
2021/08/30 07:30:08;;;;;;;7.50;5.28;;;20.10;70.50;;;;;;4953827;28;20045;-79
2021/08/30 07:32:34;;;;;;;6.95;4.78;;;20.10;70.50;;;;;;4970473;28;20038;-78
2021/08/30 07:35:00;;;;;;;6.53;5.07;;;20.10;70.60;;;;;;4958298;28;20027;-79
2021/08/30 07:37:26;;;;;;;7.00;5.30;;;20.10;70.60;;;;;;4974133;28;20022;-79
2021/08/30 07:39:52;;;;;;;6.85;4.95;;;20.10;70.60;;;;;;4957042;28;20049;-80
2021/08/30 07:42:17;;;;;;;8.02;5.28;;;20.10;70.60;;;;;;4971068;28;20030;-81
2021/08/30 07:44:43;;;;;;;9.48;5.20;;;20.20;70.60;;;;;;4973132;28;20113;-80
2021/08/30 07:47:09;;;;;;;7.43;5.45;;;20.20;70.60;;;;;;4957130;28;20046;-78
2021/08/30 07:49:35;;;;;;;7.47;5.25;;;20.20;70.60;;;;;;4959366;28;20057;-79
2021/08/30 07:52:00;;;;;;;7.28;5.20;;;20.20;70.60;;;;;;4958418;28;20034;-80
2021/08/30 07:54:26;;;;;;;7.00;4.97;;;20.20;70.60;;;;;;4954362;28;20034;-78
2021/08/30 07:56:52;;;;;;;7.65;5.15;;;20.20;70.60;;;;;;4971238;28;20026;-78
2021/08/30 07:59:18;;;;;;;7.30;5.05;;;20.20;70.60;;;;;;4956943;28;20042;-79
2021/08/30 08:01:44;;;;;;;7.55;5.50;;;20.30;70.60;;;;;;4974048;28;20133;-83
2021/08/30 08:04:10;;;;;;;7.43;5.43;;;20.30;70.60;;;;;;4988767;28;20105;-78
2021/08/30 08:06:36;;;;;;;6.50;5.18;;;20.30;70.60;;;;;;4968833;28;20394;-78
2021/08/30 08:09:02;;;;;;;7.50;5.65;;;20.30;70.50;;;;;;4939061;28;20032;-79
2021/08/30 08:11:27;;;;;;;8.30;5.78;;;20.40;70.60;;;;;;4969201;28;20050;-78
2021/08/30 08:13:53;;;;;;;7.85;5.40;;;20.40;70.50;;;;;;4984197;28;20382;-83
2021/08/30 08:16:19;;;;;;;8.27;6.10;;;20.40;70.50;;;;;;4986033;28;20132;-80
2021/08/30 08:18:45;;;;;;;6.93;5.22;;;20.40;70.40;;;;;;4938549;28;20038;-79
2021/08/30 08:21:11;;;;;;;7.00;5.35;;;20.40;70.40;;;;;;4958173;28;20042;-78
2021/08/30 08:23:37;;;;;;;7.00;5.38;;;20.50;70.40;;;;;;4992134;28;20110;-80
2021/08/30 08:26:03;;;;;;;6.78;4.90;;;20.50;70.40;;;;;;4969585;28;20129;-78
2021/08/30 08:28:29;;;;;;;7.22;5.10;;;20.50;70.30;;;;;;4942759;28;20038;-78
2021/08/30 08:30:55;;;;;;;8.85;5.43;;;20.50;70.30;;;;;;4955909;28;20506;-77
2021/08/30 08:33:20;;;;;;;6.90;5.13;;;20.50;70.30;;;;;;4969015;28;20028;-79
2021/08/30 08:35:46;;;;;;;7.13;5.55;;;20.60;70.30;;;;;;4952891;28;20034;-81
2021/08/30 08:38:13;;;;;;;7.07;5.28;;;20.50;70.20;;;;;;4983804;28;20045;-79
2021/08/30 08:40:39;;;;;;;7.30;5.57;;;20.60;70.30;;;;;;4955290;28;20039;-79
2021/08/30 08:43:15;;;;;;;7.45;5.60;;;20.60;70.20;;;;;;4941518;28;20030;-78
2021/08/30 08:45:43;;;;;;;7.10;5.38;;;20.60;70.30;;;;;;4990585;28;20041;-81
2021/08/30 08:48:10;;;;;;;7.00;4.88;;;20.60;70.20;;;;;;4978580;28;20053;-80
2021/08/30 08:50:35;;;;;;;6.22;5.20;;;20.60;70.30;;;;;;4978060;28;20065;-79
2021/08/30 08:53:04;;;;;;;6.47;5.50;;;20.70;70.40;;;;;;4988828;28;20034;-79
2021/08/30 08:55:34;;;;;;;7.40;5.22;;;20.70;70.50;;;;;;4977726;28;20054;-79
2021/08/30 08:58:11;;;;;;;7.90;5.40;;;20.70;70.60;;;;;;4972153;28;21173;-78
2021/08/30 09:00:38;;;;;;;6.78;5.25;;;20.80;70.60;;;;;;4972776;28;20035;-78
2021/08/30 09:03:19;;;;;;;8.40;5.53;;;20.80;70.50;;;;;;4971738;28;20026;-82
2021/08/30 09:05:45;;;;;;;6.60;5.15;;;20.80;70.50;;;;;;4974577;28;20022;-79
2021/08/30 09:08:31;;;;;;;7.68;5.07;;;20.90;70.40;;;;;;4956968;28;20031;-79
2021/08/30 09:10:58;;;;;;;6.68;4.72;;;20.90;70.50;;;;;;4972192;28;20045;-78
2021/08/30 09:13:29;;;;;;;6.38;4.93;;;21.00;70.40;;;;;;4997653;28;20030;-79
2021/08/30 09:15:59;;;;;;;6.30;4.50;;;21.00;70.40;;;;;;4966366;28;20469;-78
2021/08/30 09:18:30;;;;;;;7.32;5.03;;;21.00;70.30;;;;;;4972175;28;20026;-79
2021/08/30 09:21:16;;;;;;;6.63;4.90;;;21.10;70.30;;;;;;4989350;28;20042;-79
2021/08/30 09:23:44;;;;;;;6.72;5.10;;;21.10;70.20;;;;;;4979314;28;20069;-81
2021/08/30 09:26:17;;;;;;;6.80;5.18;;;21.20;70.30;;;;;;4944728;28;20034;-78
2021/08/30 09:28:50;;;;;;;6.32;5.18;;;21.20;70.20;;;;;;4942288;28;20042;-79
2021/08/30 09:31:16;;;;;;;6.38;5.03;;;21.20;70.10;;;;;;4972088;28;20019;-80
2021/08/30 09:33:52;;;;;;;6.35;5.10;;;21.30;70.00;;;;;;4968538;28;20393;-79
2021/08/30 09:36:19;;;;;;;6.82;4.90;;;21.30;70.10;;;;;;4977161;28;20108;-78
2021/08/30 09:38:55;;;;;;;5.82;4.50;;;21.30;69.90;;;;;;4974648;28;20034;-79
2021/08/30 09:41:21;;;;;;;6.43;4.78;;;21.30;69.90;;;;;;5000707;28;20033;-79
2021/08/30 09:43:47;;;;;;;6.07;4.75;;;21.40;69.80;;;;;;4978837;28;20072;-79
2021/08/30 09:46:13;;;;;;;8.20;4.65;;;21.40;69.90;;;;;;4981199;28;20050;-77
2021/08/30 09:48:45;;;;;;;6.38;4.72;;;21.50;69.80;;;;;;4970852;28;20034;-80
2021/08/30 09:51:11;;;;;;;5.50;4.45;;;21.50;69.90;;;;;;4979332;28;20038;-79
2021/08/30 09:53:37;;;;;;;5.68;4.68;;;21.50;69.80;;;;;;4989774;28;20136;-81
2021/08/30 09:56:03;;;;;;;5.57;4.50;;;21.50;69.70;;;;;;4968720;28;20034;-83
2021/08/30 09:58:29;;;;;;;6.50;4.63;;;21.60;69.70;;;;;;4973486;28;20041;-83
2021/08/30 10:00:58;;;;;;;5.57;4.13;;;21.60;69.70;;;;;;4956894;28;20042;-79
2021/08/30 10:03:31;;;;;;;5.93;4.63;;;21.70;69.70;;;;;;4957021;28;20027;-75
2021/08/30 10:05:58;;;;;;;5.97;4.43;;;21.70;69.70;;;;;;4994101;28;20088;-78
2021/08/30 10:08:25;;;;;;;5.82;4.53;;;21.70;69.60;;;;;;4976443;28;20030;-75
2021/08/30 10:10:51;;;;;;;6.95;4.65;;;21.80;69.60;;;;;;4960999;28;20044;-77
2021/08/30 10:13:18;;;;;;;5.72;4.32;;;21.80;69.50;;;;;;4945033;28;20405;-78
2021/08/30 10:15:49;;;;;;;5.75;4.53;;;21.80;69.50;;;;;;4956941;28;20038;-81
2021/08/30 10:18:19;;;;;;;5.57;3.78;;;21.90;69.50;;;;;;4976143;28;20062;-82
2021/08/30 10:20:49;;;;;;;6.15;4.55;;;21.90;69.40;;;;;;4985989;28;20034;-82
2021/08/30 10:23:15;;;;;;;5.80;4.38;;;21.90;69.30;;;;;;4976601;28;20034;-83
2021/08/30 10:25:42;;;;;;;5.28;3.83;;;22.00;69.40;;;;;;4959653;28;20030;-81
2021/08/30 10:28:11;;;;;;;6.57;4.72;;;22.00;69.40;;;;;;4961029;28;20026;-80
2021/08/30 10:30:50;;;;;;;5.18;3.95;;;22.10;69.40;;;;;;4976903;28;20530;-81
2021/08/30 10:33:16;;;;;;;5.72;3.95;;;22.10;69.40;;;;;;4975945;28;20070;-81
2021/08/30 10:35:41;;;;;;;6.20;4.45;;;22.10;69.40;;;;;;4960467;28;20070;-81
2021/08/30 10:38:19;;;;;;;4.95;3.95;;;22.10;69.40;;;;;;4994090;28;20030;-81
2021/08/30 10:40:52;;;;;;;5.40;4.22;;;22.20;69.50;;;;;;4976648;28;20049;-82
2021/08/30 10:43:21;;;;;;;5.00;3.88;;;22.30;69.40;;;;;;4957129;28;20039;-81
2021/08/30 10:45:58;;;;;;;5.47;4.22;;;22.30;69.30;;;;;;4976403;28;20042;-80
2021/08/30 10:48:39;;;;;;;5.55;4.05;;;22.40;69.30;;;;;;4976546;28;20038;-82
2021/08/30 10:51:25;;;;;;;4.75;3.78;;;22.40;69.30;;;;;;4976568;28;20037;-82
2021/08/30 10:54:05;;;;;;;5.45;4.20;;;22.40;69.10;;;;;;4976564;28;20053;-81
2021/08/30 10:56:32;;;;;;;6.15;4.30;;;22.50;69.10;;;;;;4970778;28;20054;-81
2021/08/30 10:59:11;;;;;;;5.13;3.85;;;22.50;68.90;;;;;;4957552;28;20027;-81
2021/08/30 11:01:50;;;;;;;5.30;4.05;;;22.50;68.90;;;;;;4974951;28;20042;-82
2021/08/30 11:04:16;;;;;;;5.25;3.92;;;22.60;68.90;;;;;;4976661;28;20109;-82
2021/08/30 11:06:43;;;;;;;5.53;4.22;;;22.60;68.80;;;;;;4956558;28;20114;-82
2021/08/30 11:09:16;;;;;;;6.13;3.85;;;22.60;68.90;;;;;;4957498;28;20035;-81
2021/08/30 11:11:43;;;;;;;5.47;3.95;;;22.70;69.00;;;;;;4976349;28;20165;-82
2021/08/30 11:14:10;;;;;;;4.88;3.65;;;22.70;68.90;;;;;;4976426;28;20483;-82
2021/08/30 11:16:38;;;;;;;4.90;4.00;;;22.80;68.90;;;;;;4959383;28;20105;-82
2021/08/30 11:19:05;;;;;;;5.90;4.22;;;22.80;69.20;;;;;;4993432;28;20026;-82
2021/08/30 11:21:39;;;;;;;6.53;3.97;;;22.90;69.00;;;;;;4959563;28;20031;-82
2021/08/30 11:24:07;;;;;;;4.90;3.63;;;22.90;69.00;;;;;;4976080;28;20030;-81
2021/08/30 11:26:37;;;;;;;5.38;4.20;;;22.90;68.90;;;;;;4975562;28;20019;-81
2021/08/30 11:29:07;;;;;;;4.68;3.72;;;22.90;68.80;;;;;;4956866;28;20038;-82
2021/08/30 11:31:39;;;;;;;4.88;3.75;;;23.00;68.80;;;;;;4975620;28;20069;-81
2021/08/30 11:34:10;;;;;;;4.80;3.75;;;23.00;68.60;;;;;;4960508;28;20049;-82
2021/08/30 11:36:49;;;;;;;4.90;3.83;;;23.10;68.60;;;;;;4959492;28;20027;-84
2021/08/30 11:39:16;;;;;;;5.45;3.97;;;23.10;68.80;;;;;;4975568;28;20081;-82
2021/08/30 11:41:51;;;;;;;4.85;3.55;;;23.10;68.50;;;;;;4959524;28;20025;-82
2021/08/30 11:44:17;;;;;;;5.00;3.65;;;23.20;68.60;;;;;;4959614;28;20137;-81
2021/08/30 11:46:49;;;;;;;4.90;3.47;;;23.20;68.40;;;;;;4951642;28;20050;-82
2021/08/30 11:49:16;;;;;;;4.55;3.50;;;23.20;68.40;;;;;;4984156;28;20048;-81
2021/08/30 11:51:44;;;;;;;5.10;3.80;;;23.30;68.40;;;;;;4975332;28;20031;-81
2021/08/30 11:54:31;;;;;;;4.28;3.22;;;23.30;68.20;;;;;;4975378;28;20133;-82
2021/08/30 11:56:58;;;;;;;5.00;3.88;;;23.30;68.20;;;;;;4956571;28;20031;-82
2021/08/30 11:59:38;;;;;;;4.35;3.75;;;23.30;68.00;;;;;;4992868;28;20030;-81
2021/08/30 12:02:06;;;;;;;4.18;3.33;;;23.40;68.00;;;;;;4992528;28;20080;-81
2021/08/30 12:04:37;;;;;;;5.78;3.33;;;23.40;68.00;;;;;;4975151;28;20026;-81
2021/08/30 12:07:05;;;;;;;5.28;3.75;;;23.40;67.90;;;;;;4975124;28;20041;-81
2021/08/30 12:09:47;;;;;;;4.70;3.95;;;23.50;68.00;;;;;;4974878;28;20034;-81
2021/08/30 12:12:32;;;;;;;3.83;3.03;;;23.50;67.90;;;;;;4989561;28;20054;-82
2021/08/30 12:15:03;;;;;;;4.53;3.17;;;23.50;67.80;;;;;;4943968;28;20037;-80
2021/08/30 12:17:35;;;;;;;5.15;4.00;;;23.50;67.70;;;;;;4958318;28;20430;-80
2021/08/30 12:20:09;;;;;;;4.53;3.35;;;23.60;67.70;;;;;;4976016;28;20133;-77
2021/08/30 12:22:38;;;;;;;4.93;3.30;;;23.60;67.20;;;;;;4995831;28;20030;-90
2021/08/30 12:25:15;;;;;;;5.38;3.33;;;23.60;66.90;;;;;;4963567;28;20026;-83
2021/08/30 12:27:42;;;;;;;4.70;3.47;;;23.60;66.50;;;;;;4976906;28;20435;-81
2021/08/30 12:30:13;;;;;;;5.30;3.80;;;23.60;66.50;;;;;;4959208;28;20137;-82
2021/08/30 12:33:09;;;;;;;4.78;3.67;;;23.70;66.40;;;;;;4984824;28;20321;-84
2021/08/30 12:35:38;;;;;;;4.93;3.67;;;23.70;66.50;;;;;;4995467;28;20054;-83
2021/08/30 12:38:10;;;;;;;4.60;3.53;;;23.70;66.40;;;;;;4960119;28;20038;-82
2021/08/30 12:40:39;;;;;;;4.45;3.42;;;23.80;66.70;;;;;;4958915;28;20125;-85
2021/08/30 12:43:06;;;;;;;4.18;3.13;;;23.80;66.70;;;;;;4988010;28;20041;-82
2021/08/30 12:45:32;;;;;;;5.35;4.00;;;23.80;66.70;;;;;;4979050;28;20023;-83
2021/08/30 12:47:58;;;;;;;4.50;3.30;;;23.80;66.70;;;;;;4962709;28;20173;-82
2021/08/30 12:50:25;;;;;;;4.75;3.50;;;23.80;66.50;;;;;;4978818;28;20123;-81
2021/08/30 12:52:51;;;;;;;5.20;3.40;;;23.80;66.70;;;;;;4978296;28;20034;-82
2021/08/30 12:55:17;;;;;;;4.30;3.22;;;23.90;66.80;;;;;;4995977;28;20100;-82
2021/08/30 12:57:43;;;;;;;4.00;3.22;;;23.90;66.70;;;;;;4978654;28;20038;-82